UKHH/HRK METAR and TAF weather

Enter ICAO airport designator
Station Type Date Time Source
UKHH METAR 2019/10/23 07:30 UTC NOAA

UKHH 230730Z 22003MPS 0400 0300E R25/0300N FG VV001 10/10 Q1023 R25/190079 NOSIG


Station Type Date Time Source
UKHH Decoded METAR 2019/10/23 07:30 UTC NOAA

Kharkiv, Ukraine (UKHH) 49-58N 036-08E 155M
Oct 23, 2019 - 03:30 AM EDT / 2019.10.23 0730 UTC
Wind: from the SW (220 degrees) at 7 MPH (6 KT):0
Visibility: less than 1 mile:0
Sky conditions: obscured
Weather: fog
Temperature: 50 F (10 C)
Dew Point: 50 F (10 C)
Relative Humidity: 100%
Pressure (altimeter): 30.21 in. Hg (1023 hPa)
ob: UKHH 230730Z 22003MPS 0400 0300E R25/0300N FG VV001 10/10 Q1023 R25/190079 NOSIG
cycle: 7

Station Type Date Time Source
UKHH TAF 2019/10/23 06:12 UTC NOAA

TAF UKHH 230510Z 2306/2406 24003MPS 0300 -DZ FG OVC001
TEMPO 2306/2308 1200 BR OVC002
BECMG 2308/2310 3000 BR BKN005
TEMPO 2318/2406 0400 FG VV002

Example: see airport list